sensor_id;sensor_type;location;lat;lon;timestamp;pressure;altitude;pressure_sealevel;temperature;humidity
22755;BME280;11544;42.020;23.094;2024-01-07T00:00:08;95526.94;;;14.67;100.00
22755;BME280;11544;42.020;23.094;2024-01-07T00:02:36;95508.81;;;14.86;100.00
22755;BME280;11544;42.020;23.094;2024-01-07T00:05:04;95505.09;;;14.89;100.00
22755;BME280;11544;42.020;23.094;2024-01-07T00:07:31;95496.69;;;14.63;100.00
22755;BME280;11544;42.020;23.094;2024-01-07T00:09:58;95481.25;;;14.92;100.00
22755;BME280;11544;42.020;23.094;2024-01-07T00:12:25;95491.91;;;14.79;100.00
22755;BME280;11544;42.020;23.094;2024-01-07T00:14:52;95497.03;;;14.58;100.00
22755;BME280;11544;42.020;23.094;2024-01-07T00:17:18;95500.13;;;14.29;100.00
22755;BME280;11544;42.020;23.094;2024-01-07T00:19:45;95495.47;;;14.33;100.00
22755;BME280;11544;42.020;23.094;2024-01-07T00:22:12;95483.94;;;14.58;100.00
22755;BME280;11544;42.020;23.094;2024-01-07T00:24:39;95463.25;;;14.76;96.98
22755;BME280;11544;42.020;23.094;2024-01-07T00:27:07;95451.84;;;14.77;97.45
22755;BME280;11544;42.020;23.094;2024-01-07T00:29:35;95441.94;;;14.69;94.74
22755;BME280;11544;42.020;23.094;2024-01-07T00:32:02;95455.34;;;14.98;95.37
22755;BME280;11544;42.020;23.094;2024-01-07T00:34:29;95449.59;;;15.04;93.82
22755;BME280;11544;42.020;23.094;2024-01-07T00:36:56;95438.16;;;15.06;95.06
22755;BME280;11544;42.020;23.094;2024-01-07T00:39:23;95443.19;;;14.97;96.25
22755;BME280;11544;42.020;23.094;2024-01-07T00:41:50;95449.72;;;15.03;97.94
22755;BME280;11544;42.020;23.094;2024-01-07T00:44:17;95435.91;;;14.57;100.00
22755;BME280;11544;42.020;23.094;2024-01-07T00:46:44;95438.00;;;14.52;100.00
22755;BME280;11544;42.020;23.094;2024-01-07T00:49:14;95428.59;;;14.38;100.00
22755;BME280;11544;42.020;23.094;2024-01-07T00:51:42;95418.88;;;14.18;100.00
22755;BME280;11544;42.020;23.094;2024-01-07T00:54:09;95422.22;;;14.09;100.00
22755;BME280;11544;42.020;23.094;2024-01-07T00:56:36;95404.34;;;14.14;100.00
22755;BME280;11544;42.020;23.094;2024-01-07T00:59:03;95406.13;;;13.91;100.00
22755;BME280;11544;42.020;23.094;2024-01-07T01:04:05;95393.06;;;13.80;100.00
22755;BME280;11544;42.020;23.094;2024-01-07T01:06:32;95368.63;;;13.90;100.00
22755;BME280;11544;42.020;23.094;2024-01-07T01:08:59;95375.56;;;13.91;100.00
22755;BME280;11544;42.020;23.094;2024-01-07T01:11:26;95373.03;;;13.79;100.00
22755;BME280;11544;42.020;23.094;2024-01-07T01:13:53;95378.78;;;13.26;100.00
22755;BME280;11544;42.020;23.094;2024-01-07T01:16:20;95352.69;;;13.60;100.00
22755;BME280;11544;42.020;23.094;2024-01-07T01:18:50;95363.50;;;13.55;100.00
22755;BME280;11544;42.020;23.094;2024-01-07T01:21:18;95355.41;;;13.58;100.00
22755;BME280;11544;42.020;23.094;2024-01-07T01:23:46;95360.31;;;13.51;100.00
22755;BME280;11544;42.020;23.094;2024-01-07T01:26:13;95341.84;;;13.42;100.00
22755;BME280;11544;42.020;23.094;2024-01-07T01:28:40;95350.91;;;13.71;100.00
22755;BME280;11544;42.020;23.094;2024-01-07T01:31:07;95347.56;;;13.69;100.00
22755;BME280;11544;42.020;23.094;2024-01-07T01:33:34;95343.28;;;13.91;100.00
22755;BME280;11544;42.020;23.094;2024-01-07T01:36:04;95343.66;;;13.64;100.00
22755;BME280;11544;42.020;23.094;2024-01-07T01:38:32;95355.31;;;13.82;100.00
22755;BME280;11544;42.020;23.094;2024-01-07T01:40:59;95361.38;;;13.71;100.00
22755;BME280;11544;42.020;23.094;2024-01-07T01:43:27;95361.38;;;13.83;100.00
22755;BME280;11544;42.020;23.094;2024-01-07T01:45:55;95380.28;;;13.64;100.00
22755;BME280;11544;42.020;23.094;2024-01-07T01:48:24;95425.22;;;13.11;100.00
22755;BME280;11544;42.020;23.094;2024-01-07T01:50:53;95446.91;;;13.24;100.00
22755;BME280;11544;42.020;23.094;2024-01-07T01:53:20;95443.75;;;13.32;100.00
22755;BME280;11544;42.020;23.094;2024-01-07T01:55:47;95457.13;;;12.55;100.00
22755;BME280;11544;42.020;23.094;2024-01-07T01:58:17;95463.75;;;13.33;100.00
22755;BME280;11544;42.020;23.094;2024-01-07T02:00:45;95482.66;;;12.88;100.00
22755;BME280;11544;42.020;23.094;2024-01-07T02:03:12;95490.53;;;12.76;100.00
22755;BME280;11544;42.020;23.094;2024-01-07T02:05:39;95499.94;;;12.16;100.00
22755;BME280;11544;42.020;23.094;2024-01-07T02:08:06;95482.56;;;11.63;100.00
22755;BME280;11544;42.020;23.094;2024-01-07T02:10:34;95506.00;;;11.38;100.00
22755;BME280;11544;42.020;23.094;2024-01-07T02:13:06;95501.88;;;11.48;100.00
22755;BME280;11544;42.020;23.094;2024-01-07T02:15:34;95508.09;;;11.33;100.00
22755;BME280;11544;42.020;23.094;2024-01-07T02:18:01;95504.66;;;11.45;100.00
22755;BME280;11544;42.020;23.094;2024-01-07T02:20:28;95509.06;;;11.57;100.00
22755;BME280;11544;42.020;23.094;2024-01-07T02:22:55;95505.97;;;11.65;100.00
22755;BME280;11544;42.020;23.094;2024-01-07T02:25:24;95516.72;;;11.60;100.00
22755;BME280;11544;42.020;23.094;2024-01-07T02:27:51;95512.63;;;11.43;100.00
22755;BME280;11544;42.020;23.094;2024-01-07T02:30:18;95516.47;;;11.11;100.00
22755;BME280;11544;42.020;23.094;2024-01-07T02:32:45;95524.19;;;11.39;100.00
22755;BME280;11544;42.020;23.094;2024-01-07T02:35:12;95533.28;;;10.92;100.00
22755;BME280;11544;42.020;23.094;2024-01-07T02:37:39;95527.81;;;11.10;100.00
22755;BME280;11544;42.020;23.094;2024-01-07T02:40:07;95512.25;;;11.35;100.00
22755;BME280;11544;42.020;23.094;2024-01-07T02:42:34;95490.66;;;11.33;100.00
22755;BME280;11544;42.020;23.094;2024-01-07T02:45:01;95480.91;;;11.62;100.00
22755;BME280;11544;42.020;23.094;2024-01-07T02:47:28;95481.09;;;11.07;100.00
22755;BME280;11544;42.020;23.094;2024-01-07T02:49:55;95464.72;;;11.05;100.00
22755;BME280;11544;42.020;23.094;2024-01-07T02:52:22;95457.25;;;11.13;100.00
22755;BME280;11544;42.020;23.094;2024-01-07T02:54:49;95456.13;;;11.42;100.00
22755;BME280;11544;42.020;23.094;2024-01-07T02:57:16;95455.84;;;11.47;100.00
22755;BME280;11544;42.020;23.094;2024-01-07T02:59:43;95455.25;;;11.16;100.00
22755;BME280;11544;42.020;23.094;2024-01-07T03:02:10;95438.88;;;11.14;100.00
22755;BME280;11544;42.020;23.094;2024-01-07T03:04:36;95440.31;;;11.58;100.00
22755;BME280;11544;42.020;23.094;2024-01-07T03:07:03;95431.75;;;11.43;100.00
22755;BME280;11544;42.020;23.094;2024-01-07T03:09:30;95442.25;;;11.42;100.00
22755;BME280;11544;42.020;23.094;2024-01-07T03:11:57;95434.47;;;11.68;100.00
22755;BME280;11544;42.020;23.094;2024-01-07T03:14:24;95426.81;;;11.64;100.00
22755;BME280;11544;42.020;23.094;2024-01-07T03:16:51;95417.84;;;11.43;100.00
22755;BME280;11544;42.020;23.094;2024-01-07T03:19:18;95414.19;;;11.33;100.00
22755;BME280;11544;42.020;23.094;2024-01-07T03:21:45;95409.50;;;11.51;100.00
22755;BME280;11544;42.020;23.094;2024-01-07T03:24:12;95405.19;;;11.24;100.00
22755;BME280;11544;42.020;23.094;2024-01-07T03:26:39;95397.69;;;11.45;100.00
22755;BME280;11544;42.020;23.094;2024-01-07T03:29:05;95375.03;;;11.71;100.00
22755;BME280;11544;42.020;23.094;2024-01-07T03:31:32;95372.22;;;11.36;100.00
22755;BME280;11544;42.020;23.094;2024-01-07T03:33:59;95377.34;;;11.50;100.00
22755;BME280;11544;42.020;23.094;2024-01-07T03:36:27;95372.88;;;11.65;100.00
22755;BME280;11544;42.020;23.094;2024-01-07T03:38:54;95365.66;;;11.69;100.00
22755;BME280;11544;42.020;23.094;2024-01-07T03:41:21;95384.47;;;11.48;100.00
22755;BME280;11544;42.020;23.094;2024-01-07T03:43:48;95398.03;;;11.79;100.00
22755;BME280;11544;42.020;23.094;2024-01-07T03:46:16;95404.38;;;11.62;100.00
22755;BME280;11544;42.020;23.094;2024-01-07T03:48:43;95418.13;;;11.26;100.00
22755;BME280;11544;42.020;23.094;2024-01-07T03:51:10;95419.78;;;11.27;100.00
22755;BME280;11544;42.020;23.094;2024-01-07T03:53:37;95414.03;;;11.09;100.00
22755;BME280;11544;42.020;23.094;2024-01-07T03:56:05;95415.16;;;10.92;100.00
22755;BME280;11544;42.020;23.094;2024-01-07T03:58:32;95417.94;;;11.54;100.00
22755;BME280;11544;42.020;23.094;2024-01-07T04:00:59;95409.38;;;11.78;100.00
22755;BME280;11544;42.020;23.094;2024-01-07T04:03:26;95410.44;;;12.01;100.00
22755;BME280;11544;42.020;23.094;2024-01-07T04:05:53;95419.34;;;11.60;100.00
22755;BME280;11544;42.020;23.094;2024-01-07T04:08:20;95425.03;;;11.52;100.00
22755;BME280;11544;42.020;23.094;2024-01-07T04:10:47;95413.88;;;11.37;100.00
22755;BME280;11544;42.020;23.094;2024-01-07T04:13:14;95411.69;;;11.57;100.00
22755;BME280;11544;42.020;23.094;2024-01-07T04:15:41;95406.88;;;11.25;100.00
22755;BME280;11544;42.020;23.094;2024-01-07T04:18:08;95407.69;;;11.13;100.00
22755;BME280;11544;42.020;23.094;2024-01-07T04:20:35;95419.22;;;11.49;100.00
22755;BME280;11544;42.020;23.094;2024-01-07T04:23:02;95404.81;;;11.56;100.00
22755;BME280;11544;42.020;23.094;2024-01-07T04:25:29;95395.00;;;11.72;100.00
22755;BME280;11544;42.020;23.094;2024-01-07T04:27:55;95385.00;;;11.53;100.00
22755;BME280;11544;42.020;23.094;2024-01-07T04:30:22;95379.88;;;11.52;100.00
22755;BME280;11544;42.020;23.094;2024-01-07T04:32:49;95387.38;;;11.43;100.00
22755;BME280;11544;42.020;23.094;2024-01-07T04:35:16;95393.09;;;11.23;100.00
22755;BME280;11544;42.020;23.094;2024-01-07T04:37:43;95397.09;;;10.89;100.00
22755;BME280;11544;42.020;23.094;2024-01-07T04:40:10;95392.72;;;10.89;100.00
22755;BME280;11544;42.020;23.094;2024-01-07T04:42:37;95385.16;;;10.72;100.00
22755;BME280;11544;42.020;23.094;2024-01-07T04:45:05;95380.22;;;10.94;100.00
22755;BME280;11544;42.020;23.094;2024-01-07T04:47:33;95377.88;;;11.30;100.00
22755;BME280;11544;42.020;23.094;2024-01-07T04:50:03;95384.22;;;11.26;100.00
22755;BME280;11544;42.020;23.094;2024-01-07T04:52:31;95379.34;;;11.59;100.00
22755;BME280;11544;42.020;23.094;2024-01-07T04:54:58;95383.06;;;11.04;100.00
22755;BME280;11544;42.020;23.094;2024-01-07T04:57:25;95392.50;;;11.58;100.00
22755;BME280;11544;42.020;23.094;2024-01-07T04:59:52;95401.59;;;11.65;100.00
22755;BME280;11544;42.020;23.094;2024-01-07T05:02:19;95393.94;;;11.49;100.00
22755;BME280;11544;42.020;23.094;2024-01-07T05:04:47;95389.66;;;11.22;100.00
22755;BME280;11544;42.020;23.094;2024-01-07T05:07:14;95383.28;;;11.78;100.00
22755;BME280;11544;42.020;23.094;2024-01-07T05:09:41;95388.63;;;11.38;100.00
22755;BME280;11544;42.020;23.094;2024-01-07T05:12:08;95393.84;;;11.51;100.00
22755;BME280;11544;42.020;23.094;2024-01-07T05:14:35;95390.50;;;11.36;100.00
22755;BME280;11544;42.020;23.094;2024-01-07T05:17:03;95393.66;;;11.41;100.00
22755;BME280;11544;42.020;23.094;2024-01-07T05:19:30;95397.19;;;11.53;100.00
22755;BME280;11544;42.020;23.094;2024-01-07T05:21:58;95398.31;;;11.36;100.00
22755;BME280;11544;42.020;23.094;2024-01-07T05:24:25;95396.69;;;10.95;100.00
22755;BME280;11544;42.020;23.094;2024-01-07T05:26:53;95400.41;;;11.18;100.00
22755;BME280;11544;42.020;23.094;2024-01-07T05:29:19;95401.00;;;11.09;100.00
22755;BME280;11544;42.020;23.094;2024-01-07T05:31:46;95407.78;;;10.44;100.00
22755;BME280;11544;42.020;23.094;2024-01-07T05:34:14;95406.47;;;10.51;100.00
22755;BME280;11544;42.020;23.094;2024-01-07T05:36:41;95402.13;;;10.92;100.00
22755;BME280;11544;42.020;23.094;2024-01-07T05:39:08;95409.25;;;11.15;100.00
22755;BME280;11544;42.020;23.094;2024-01-07T05:41:37;95407.69;;;11.13;100.00
22755;BME280;11544;42.020;23.094;2024-01-07T05:44:06;95409.06;;;11.18;100.00
22755;BME280;11544;42.020;23.094;2024-01-07T05:46:37;95403.44;;;11.25;100.00
22755;BME280;11544;42.020;23.094;2024-01-07T05:49:05;95407.53;;;10.62;100.00
22755;BME280;11544;42.020;23.094;2024-01-07T05:51:32;95418.75;;;11.16;100.00
22755;BME280;11544;42.020;23.094;2024-01-07T05:53:59;95418.56;;;11.45;100.00
22755;BME280;11544;42.020;23.094;2024-01-07T05:56:26;95424.59;;;10.80;100.00
22755;BME280;11544;42.020;23.094;2024-01-07T05:58:53;95420.31;;;11.19;100.00
22755;BME280;11544;42.020;23.094;2024-01-07T06:01:20;95418.88;;;10.88;100.00
22755;BME280;11544;42.020;23.094;2024-01-07T06:03:48;95415.41;;;10.74;100.00
22755;BME280;11544;42.020;23.094;2024-01-07T06:06:15;95404.78;;;10.77;100.00
22755;BME280;11544;42.020;23.094;2024-01-07T06:08:42;95409.78;;;10.68;100.00
22755;BME280;11544;42.020;23.094;2024-01-07T06:11:09;95416.94;;;10.64;100.00
22755;BME280;11544;42.020;23.094;2024-01-07T06:13:38;95402.13;;;10.92;100.00
22755;BME280;11544;42.020;23.094;2024-01-07T06:16:05;95405.03;;;10.87;100.00
22755;BME280;11544;42.020;23.094;2024-01-07T06:18:32;95416.50;;;10.97;100.00
22755;BME280;11544;42.020;23.094;2024-01-07T06:21:04;95419.97;;;10.44;100.00
22755;BME280;11544;42.020;23.094;2024-01-07T06:23:33;95418.81;;;10.89;100.00
22755;BME280;11544;42.020;23.094;2024-01-07T06:26:03;95428.78;;;10.83;100.00
22755;BME280;11544;42.020;23.094;2024-01-07T06:28:29;95425.59;;;11.05;100.00
22755;BME280;11544;42.020;23.094;2024-01-07T06:30:57;95423.22;;;11.14;100.00
22755;BME280;11544;42.020;23.094;2024-01-07T06:33:26;95421.19;;;10.92;100.00
22755;BME280;11544;42.020;23.094;2024-01-07T06:35:53;95431.78;;;11.16;100.00
22755;BME280;11544;42.020;23.094;2024-01-07T06:38:20;95453.50;;;10.90;100.00
22755;BME280;11544;42.020;23.094;2024-01-07T06:40:47;95447.94;;;11.74;100.00
22755;BME280;11544;42.020;23.094;2024-01-07T06:43:14;95443.75;;;11.46;100.00
22755;BME280;11544;42.020;23.094;2024-01-07T06:45:42;95455.84;;;11.07;100.00
22755;BME280;11544;42.020;23.094;2024-01-07T06:48:10;95451.31;;;11.23;100.00
22755;BME280;11544;42.020;23.094;2024-01-07T06:50:37;95455.97;;;11.58;100.00
22755;BME280;11544;42.020;23.094;2024-01-07T06:53:04;95445.28;;;11.36;100.00
22755;BME280;11544;42.020;23.094;2024-01-07T06:55:30;95454.69;;;10.98;100.00
22755;BME280;11544;42.020;23.094;2024-01-07T06:57:57;95454.50;;;11.01;100.00
22755;BME280;11544;42.020;23.094;2024-01-07T07:00:24;95443.00;;;11.44;100.00
22755;BME280;11544;42.020;23.094;2024-01-07T07:02:51;95441.66;;;11.51;100.00
22755;BME280;11544;42.020;23.094;2024-01-07T07:05:18;95443.28;;;11.27;100.00
22755;BME280;11544;42.020;23.094;2024-01-07T07:07:45;95443.59;;;11.22;100.00
22755;BME280;11544;42.020;23.094;2024-01-07T07:10:12;95428.78;;;11.35;100.00
22755;BME280;11544;42.020;23.094;2024-01-07T07:12:39;95442.16;;;11.56;100.00
22755;BME280;11544;42.020;23.094;2024-01-07T07:15:07;95438.19;;;11.38;100.00
22755;BME280;11544;42.020;23.094;2024-01-07T07:17:39;95436.44;;;11.51;100.00
22755;BME280;11544;42.020;23.094;2024-01-07T07:20:06;95433.22;;;11.99;100.00
22755;BME280;11544;42.020;23.094;2024-01-07T07:22:34;95447.50;;;11.68;100.00
22755;BME280;11544;42.020;23.094;2024-01-07T07:25:01;95444.59;;;11.72;100.00
22755;BME280;11544;42.020;23.094;2024-01-07T07:27:29;95444.78;;;11.82;100.00
22755;BME280;11544;42.020;23.094;2024-01-07T07:29:56;95446.03;;;11.76;100.00
22755;BME280;11544;42.020;23.094;2024-01-07T07:32:23;95448.13;;;11.84;100.00
22755;BME280;11544;42.020;23.094;2024-01-07T07:34:50;95455.31;;;12.19;100.00
22755;BME280;11544;42.020;23.094;2024-01-07T07:37:17;95444.50;;;12.12;100.00
22755;BME280;11544;42.020;23.094;2024-01-07T07:39:47;95450.75;;;11.97;100.00
22755;BME280;11544;42.020;23.094;2024-01-07T07:42:14;95437.28;;;11.90;100.00
22755;BME280;11544;42.020;23.094;2024-01-07T07:44:41;95440.38;;;12.21;100.00
22755;BME280;11544;42.020;23.094;2024-01-07T07:47:08;95441.72;;;12.39;100.00
22755;BME280;11544;42.020;23.094;2024-01-07T07:49:38;95435.34;;;13.40;100.00
22755;BME280;11544;42.020;23.094;2024-01-07T07:52:07;95434.75;;;12.64;100.00
22755;BME280;11544;42.020;23.094;2024-01-07T07:54:38;95445.41;;;12.24;100.00
22755;BME280;11544;42.020;23.094;2024-01-07T07:57:07;95443.16;;;12.43;100.00
22755;BME280;11544;42.020;23.094;2024-01-07T07:59:34;95440.47;;;12.69;100.00
22755;BME280;11544;42.020;23.094;2024-01-07T08:02:01;95437.34;;;12.27;100.00
22755;BME280;11544;42.020;23.094;2024-01-07T08:04:28;95448.81;;;12.74;100.00
22755;BME280;11544;42.020;23.094;2024-01-07T08:06:55;95436.41;;;12.65;100.00
22755;BME280;11544;42.020;23.094;2024-01-07T08:09:23;95432.41;;;12.72;100.00
22755;BME280;11544;42.020;23.094;2024-01-07T08:11:52;95424.09;;;12.54;100.00
22755;BME280;11544;42.020;23.094;2024-01-07T08:14:19;95413.94;;;12.62;100.00
22755;BME280;11544;42.020;23.094;2024-01-07T08:16:46;95419.75;;;12.42;100.00
22755;BME280;11544;42.020;23.094;2024-01-07T08:19:13;95412.84;;;13.13;100.00
22755;BME280;11544;42.020;23.094;2024-01-07T08:21:40;95418.22;;;12.63;100.00
22755;BME280;11544;42.020;23.094;2024-01-07T08:24:07;95423.19;;;12.05;100.00
22755;BME280;11544;42.020;23.094;2024-01-07T08:26:34;95412.06;;;12.27;100.00
22755;BME280;11544;42.020;23.094;2024-01-07T08:29:01;95415.41;;;12.66;100.00
22755;BME280;11544;42.020;23.094;2024-01-07T08:31:28;95413.66;;;13.02;100.00
22755;BME280;11544;42.020;23.094;2024-01-07T08:33:55;95422.22;;;12.80;100.00
22755;BME280;11544;42.020;23.094;2024-01-07T08:36:22;95416.44;;;12.27;100.00
22755;BME280;11544;42.020;23.094;2024-01-07T08:38:49;95414.25;;;12.34;100.00
22755;BME280;11544;42.020;23.094;2024-01-07T08:41:16;95416.38;;;12.53;100.00
22755;BME280;11544;42.020;23.094;2024-01-07T08:43:43;95421.34;;;12.32;100.00
22755;BME280;11544;42.020;23.094;2024-01-07T08:46:11;95417.38;;;12.63;100.00
22755;BME280;11544;42.020;23.094;2024-01-07T08:48:40;95421.56;;;12.65;100.00
22755;BME280;11544;42.020;23.094;2024-01-07T08:51:07;95416.69;;;12.24;100.00
22755;BME280;11544;42.020;23.094;2024-01-07T08:53:35;95421.53;;;12.41;100.00
22755;BME280;11544;42.020;23.094;2024-01-07T08:56:01;95425.28;;;12.50;100.00
22755;BME280;11544;42.020;23.094;2024-01-07T08:58:28;95422.81;;;12.23;100.00
22755;BME280;11544;42.020;23.094;2024-01-07T09:00:55;95424.94;;;12.55;100.00
22755;BME280;11544;42.020;23.094;2024-01-07T09:03:22;95420.53;;;12.31;100.00
22755;BME280;11544;42.020;23.094;2024-01-07T09:05:49;95416.84;;;12.34;100.00
22755;BME280;11544;42.020;23.094;2024-01-07T09:08:16;95412.88;;;12.28;100.00
22755;BME280;11544;42.020;23.094;2024-01-07T09:10:43;95424.97;;;12.42;100.00
22755;BME280;11544;42.020;23.094;2024-01-07T09:13:10;95414.66;;;12.88;100.00
22755;BME280;11544;42.020;23.094;2024-01-07T09:15:37;95409.81;;;12.10;100.00
22755;BME280;11544;42.020;23.094;2024-01-07T09:18:05;95418.09;;;12.41;100.00
22755;BME280;11544;42.020;23.094;2024-01-07T09:20:32;95412.69;;;12.18;100.00
22755;BME280;11544;42.020;23.094;2024-01-07T09:23:00;95396.22;;;12.42;100.00
22755;BME280;11544;42.020;23.094;2024-01-07T09:25:27;95388.78;;;12.24;100.00
22755;BME280;11544;42.020;23.094;2024-01-07T09:27:54;95389.63;;;12.49;100.00
22755;BME280;11544;42.020;23.094;2024-01-07T09:30:21;95391.13;;;12.88;100.00
22755;BME280;11544;42.020;23.094;2024-01-07T09:32:48;95389.63;;;12.97;100.00
22755;BME280;11544;42.020;23.094;2024-01-07T09:35:15;95391.44;;;13.08;100.00
22755;BME280;11544;42.020;23.094;2024-01-07T09:37:42;95383.66;;;12.95;99.64
22755;BME280;11544;42.020;23.094;2024-01-07T09:40:09;95379.22;;;13.20;99.04
22755;BME280;11544;42.020;23.094;2024-01-07T09:42:37;95379.78;;;12.77;98.50
22755;BME280;11544;42.020;23.094;2024-01-07T09:45:04;95371.31;;;12.97;97.99
22755;BME280;11544;42.020;23.094;2024-01-07T09:47:31;95368.13;;;13.40;94.88
22755;BME280;11544;42.020;23.094;2024-01-07T09:49:58;95357.44;;;14.11;100.00
22755;BME280;11544;42.020;23.094;2024-01-07T09:52:26;95349.31;;;14.25;97.06
22755;BME280;11544;42.020;23.094;2024-01-07T09:55:02;95348.16;;;13.62;94.12
22755;BME280;11544;42.020;23.094;2024-01-07T09:57:30;95349.13;;;13.61;90.42
22755;BME280;11544;42.020;23.094;2024-01-07T09:59:57;95341.91;;;14.30;87.48
22755;BME280;11544;42.020;23.094;2024-01-07T10:02:25;95334.34;;;14.59;88.72
22755;BME280;11544;42.020;23.094;2024-01-07T10:04:52;95338.75;;;14.59;82.41
22755;BME280;11544;42.020;23.094;2024-01-07T10:07:19;95334.97;;;14.84;82.38
22755;BME280;11544;42.020;23.094;2024-01-07T10:09:46;95336.84;;;14.93;78.77
22755;BME280;11544;42.020;23.094;2024-01-07T10:12:13;95329.53;;;14.32;81.76
22755;BME280;11544;42.020;23.094;2024-01-07T10:14:40;95326.06;;;14.75;79.38
22755;BME280;11544;42.020;23.094;2024-01-07T10:17:17;95311.00;;;14.56;80.76
22755;BME280;11544;42.020;23.094;2024-01-07T10:19:44;95306.28;;;14.71;82.67
22755;BME280;11544;42.020;23.094;2024-01-07T10:22:15;95300.75;;;14.86;79.33
22755;BME280;11544;42.020;23.094;2024-01-07T10:24:43;95289.56;;;15.87;73.90
22755;BME280;11544;42.020;23.094;2024-01-07T10:27:10;95282.16;;;15.10;74.11
22755;BME280;11544;42.020;23.094;2024-01-07T10:29:37;95279.75;;;15.58;74.05
22755;BME280;11544;42.020;23.094;2024-01-07T10:32:04;95269.09;;;14.98;75.20
22755;BME280;11544;42.020;23.094;2024-01-07T10:34:34;95262.38;;;14.52;77.54
22755;BME280;11544;42.020;23.094;2024-01-07T10:37:03;95266.06;;;15.24;77.41
22755;BME280;11544;42.020;23.094;2024-01-07T10:39:34;95263.13;;;14.75;78.47
22755;BME280;11544;42.020;23.094;2024-01-07T10:42:00;95266.53;;;14.87;79.15
22755;BME280;11544;42.020;23.094;2024-01-07T10:44:31;95259.31;;;14.15;83.75
22755;BME280;11544;42.020;23.094;2024-01-07T10:46:59;95258.16;;;14.93;79.76
22755;BME280;11544;42.020;23.094;2024-01-07T10:49:27;95255.69;;;14.27;81.45
22755;BME280;11544;42.020;23.094;2024-01-07T10:52:06;95256.72;;;14.36;84.60
22755;BME280;11544;42.020;23.094;2024-01-07T10:54:35;95260.69;;;14.63;82.68
22755;BME280;11544;42.020;23.094;2024-01-07T10:57:12;95258.69;;;14.55;81.28
22755;BME280;11544;42.020;23.094;2024-01-07T10:59:40;95256.94;;;14.44;81.70
22755;BME280;11544;42.020;23.094;2024-01-07T11:02:09;95259.09;;;14.71;78.88
22755;BME280;11544;42.020;23.094;2024-01-07T11:04:47;95246.41;;;14.97;77.78
22755;BME280;11544;42.020;23.094;2024-01-07T11:10:35;95244.72;;;15.08;76.72
22755;BME280;11544;42.020;23.094;2024-01-07T11:13:34;95230.97;;;15.25;74.25
22755;BME280;11544;42.020;23.094;2024-01-07T11:16:02;95239.91;;;15.13;74.95
22755;BME280;11544;42.020;23.094;2024-01-07T11:18:31;95234.22;;;14.87;76.57
22755;BME280;11544;42.020;23.094;2024-01-07T11:21:01;95241.38;;;14.85;75.74
22755;BME280;11544;42.020;23.094;2024-01-07T11:23:35;95243.84;;;14.76;75.93
22755;BME280;11544;42.020;23.094;2024-01-07T11:26:06;95245.09;;;14.50;75.81
22755;BME280;11544;42.020;23.094;2024-01-07T11:31:18;95241.06;;;14.78;75.26
22755;BME280;11544;42.020;23.094;2024-01-07T11:33:47;95239.84;;;14.61;77.99
22755;BME280;11544;42.020;23.094;2024-01-07T11:36:16;95251.47;;;14.36;79.64
22755;BME280;11544;42.020;23.094;2024-01-07T11:38:44;95251.66;;;13.80;82.77
22755;BME280;11544;42.020;23.094;2024-01-07T11:41:14;95224.53;;;13.58;84.37
22755;BME280;11544;42.020;23.094;2024-01-07T11:43:56;95229.38;;;13.85;84.53
22755;BME280;11544;42.020;23.094;2024-01-07T11:46:31;95234.25;;;13.90;84.79
22755;BME280;11544;42.020;23.094;2024-01-07T11:48:59;95215.84;;;13.58;85.06
22755;BME280;11544;42.020;23.094;2024-01-07T11:51:31;95222.63;;;14.15;84.80
22755;BME280;11544;42.020;23.094;2024-01-07T11:54:00;95220.56;;;14.18;83.42
22755;BME280;11544;42.020;23.094;2024-01-07T11:56:28;95218.63;;;14.00;83.76
22755;BME280;11544;42.020;23.094;2024-01-07T11:58:55;95228.41;;;14.30;83.88
22755;BME280;11544;42.020;23.094;2024-01-07T12:01:25;95223.50;;;14.36;84.73
22755;BME280;11544;42.020;23.094;2024-01-07T12:03:55;95212.53;;;14.10;86.77
22755;BME280;11544;42.020;23.094;2024-01-07T12:06:22;95221.22;;;14.11;85.38
22755;BME280;11544;42.020;23.094;2024-01-07T12:08:49;95221.41;;;13.75;87.51
22755;BME280;11544;42.020;23.094;2024-01-07T12:11:18;95218.28;;;13.93;86.75
22755;BME280;11544;42.020;23.094;2024-01-07T12:13:45;95219.25;;;13.92;86.15
22755;BME280;11544;42.020;23.094;2024-01-07T12:16:13;95219.22;;;14.03;87.95
22755;BME280;11544;42.020;23.094;2024-01-07T12:18:40;95215.66;;;13.93;88.16
22755;BME280;11544;42.020;23.094;2024-01-07T12:21:07;95220.72;;;13.62;88.72
22755;BME280;11544;42.020;23.094;2024-01-07T12:23:35;95220.59;;;13.64;90.98
22755;BME280;11544;42.020;23.094;2024-01-07T12:26:10;95218.28;;;13.82;90.56
22755;BME280;11544;42.020;23.094;2024-01-07T12:28:41;95213.75;;;13.95;91.61
22755;BME280;11544;42.020;23.094;2024-01-07T12:31:09;95220.59;;;13.64;93.74
22755;BME280;11544;42.020;23.094;2024-01-07T12:33:39;95225.03;;;13.41;96.89
22755;BME280;11544;42.020;23.094;2024-01-07T12:36:08;95232.53;;;13.45;97.42
22755;BME280;11544;42.020;23.094;2024-01-07T12:38:38;95231.28;;;13.27;100.00
22755;BME280;11544;42.020;23.094;2024-01-07T12:41:05;95227.13;;;13.13;100.00
22755;BME280;11544;42.020;23.094;2024-01-07T12:43:33;95229.31;;;13.30;100.00
22755;BME280;11544;42.020;23.094;2024-01-07T12:46:00;95232.63;;;13.66;100.00
22755;BME280;11544;42.020;23.094;2024-01-07T12:48:33;95233.19;;;13.70;100.00
22755;BME280;11544;42.020;23.094;2024-01-07T12:51:00;95244.59;;;13.91;100.00
22755;BME280;11544;42.020;23.094;2024-01-07T12:53:28;95242.03;;;13.58;100.00